Terminal Aerodrome Forecast
Issued by NWS

Current Version | Previous Version | Text Only | Print | Product List | Glossary On
Versions: 1 2 3 4 5 6 7 8 9 10 11 12 13 14 15 16 17 18 19 20 21 22 23 24 25 26 27 28 29 30 31 32 33 34 35 36 37 38 39 40 41 42 43 44
000 FTUS42 KRAH 231734 TAFRWI TAF KRWI 231734Z 2318/2418 06007KT P6SM BKN035 BKN080 TEMPO 2319/2323 3SM -TSRA BKN017CB FM240700 04006KT 3SM BR OVC007 FM241500 04010G16KT P6SM BKN030=

USA.gov is the U.S. government's official web portal to all federal, state and local government web resources and services.